createdAt,value
2023-05-06T00:00:06.841Z,6.30
2023-05-06T00:01:06.810Z,8.80
2023-05-06T00:02:06.880Z,6.50
2023-05-06T00:03:06.895Z,6.50
2023-05-06T00:04:06.909Z,6.60
2023-05-06T00:05:06.967Z,6.30
2023-05-06T00:06:06.752Z,6.80
2023-05-06T00:07:06.782Z,6.90
2023-05-06T00:08:06.763Z,7.00
2023-05-06T00:09:06.739Z,6.60
2023-05-06T00:10:06.730Z,7.30
2023-05-06T00:11:06.758Z,7.00
2023-05-06T00:12:06.708Z,8.30
2023-05-06T00:13:06.737Z,7.80
2023-05-06T00:14:06.714Z,8.70
2023-05-06T00:15:06.752Z,8.20
2023-05-06T00:16:06.692Z,7.90
2023-05-06T00:17:06.666Z,8.30
2023-05-06T00:18:06.695Z,7.30
2023-05-06T00:19:06.648Z,8.00
2023-05-06T00:20:06.662Z,6.50
2023-05-06T00:21:06.640Z,4.50
2023-05-06T00:22:06.629Z,5.70
2023-05-06T00:23:06.624Z,5.00
2023-05-06T00:24:06.623Z,4.40
2023-05-06T00:25:06.691Z,4.70
2023-05-06T00:26:06.617Z,4.40
2023-05-06T00:27:06.595Z,4.90
2023-05-06T00:28:06.605Z,4.40
2023-05-06T00:29:06.608Z,4.90
2023-05-06T00:30:06.567Z,4.80
2023-05-06T00:31:06.570Z,3.50
2023-05-06T00:32:06.548Z,5.30
2023-05-06T00:33:06.610Z,6.10
2023-05-06T00:34:06.549Z,6.00
2023-05-06T00:35:06.692Z,5.90
2023-05-06T00:36:06.548Z,4.30
2023-05-06T00:37:06.507Z,4.40
2023-05-06T00:38:06.522Z,4.50
2023-05-06T00:39:06.509Z,5.10
2023-05-06T00:40:06.509Z,5.10
2023-05-06T00:41:06.483Z,5.50
2023-05-06T00:42:06.467Z,5.40
2023-05-06T00:43:06.477Z,6.30
2023-05-06T00:44:06.628Z,6.00
2023-05-06T00:45:06.542Z,7.10
2023-05-06T00:46:06.591Z,7.10
2023-05-06T00:47:06.424Z,5.70
2023-05-06T00:48:06.493Z,6.60
2023-05-06T00:49:06.432Z,7.00
2023-05-06T00:50:06.409Z,8.60
2023-05-06T00:51:06.404Z,7.40
2023-05-06T00:52:06.408Z,9.80
2023-05-06T00:53:06.400Z,7.60
2023-05-06T00:54:06.378Z,7.80
2023-05-06T00:55:06.438Z,9.00
2023-05-06T00:56:06.359Z,7.50
2023-05-06T00:57:06.360Z,6.80
2023-05-06T00:58:06.359Z,6.90
2023-05-06T00:59:06.356Z,7.60
2023-05-06T01:00:06.381Z,7.70
2023-05-06T01:01:06.387Z,7.70
2023-05-06T01:02:06.371Z,7.70
2023-05-06T01:03:06.514Z,7.20
2023-05-06T01:04:06.321Z,7.00
2023-05-06T01:05:06.408Z,6.70
2023-05-06T01:06:06.282Z,6.80
2023-05-06T01:07:06.282Z,6.70
2023-05-06T01:08:06.295Z,7.10
2023-05-06T01:09:06.319Z,6.70
2023-05-06T01:10:06.244Z,7.70
2023-05-06T01:11:06.264Z,7.10
2023-05-06T01:12:06.218Z,7.90
2023-05-06T01:13:06.269Z,8.10
2023-05-06T01:14:06.292Z,8.40
2023-05-06T01:15:06.523Z,8.30
2023-05-06T01:16:06.210Z,8.30
2023-05-06T01:17:06.275Z,7.80
2023-05-06T01:18:06.245Z,9.00
2023-05-06T01:19:06.203Z,10.90
2023-05-06T01:20:06.175Z,10.70
2023-05-06T01:21:06.204Z,7.20
2023-05-06T01:22:06.172Z,7.80
2023-05-06T01:23:06.174Z,9.50
2023-05-06T01:24:06.126Z,9.80
2023-05-06T01:25:06.147Z,9.00
2023-05-06T01:26:06.134Z,9.10
2023-05-06T01:27:06.146Z,9.20
2023-05-06T01:28:06.120Z,9.70
2023-05-06T01:29:06.116Z,8.50
2023-05-06T01:30:06.087Z,9.30
2023-05-06T01:31:06.144Z,11.20
2023-05-06T01:32:06.171Z,11.20
2023-05-06T01:33:06.138Z,10.60
2023-05-06T01:34:06.061Z,10.60
2023-05-06T01:35:06.100Z,9.60
2023-05-06T01:36:06.040Z,10.20
2023-05-06T01:37:06.027Z,11.50
2023-05-06T01:38:06.089Z,10.00
2023-05-06T01:39:06.024Z,10.10
2023-05-06T01:40:06.002Z,9.80
2023-05-06T01:41:06.004Z,11.80
2023-05-06T01:42:05.982Z,13.60
2023-05-06T01:43:05.997Z,13.40
2023-05-06T01:44:06.048Z,12.20
2023-05-06T01:45:05.986Z,9.90
2023-05-06T01:46:06.002Z,10.00
2023-05-06T01:47:05.966Z,10.00
2023-05-06T01:48:06.036Z,6.90
2023-05-06T01:49:05.990Z,7.60
2023-05-06T01:50:05.971Z,9.60
2023-05-06T01:51:05.928Z,8.10
2023-05-06T01:52:05.907Z,7.00
2023-05-06T01:53:05.941Z,7.70
2023-05-06T01:54:05.913Z,8.00
2023-05-06T01:55:06.043Z,9.10
2023-05-06T01:56:05.932Z,8.10
2023-05-06T01:57:05.901Z,8.60
2023-05-06T01:58:05.854Z,10.00
2023-05-06T01:59:05.864Z,8.80
2023-05-06T02:00:05.861Z,10.70
2023-05-06T02:01:05.940Z,8.10
2023-05-06T02:02:06.028Z,7.50
2023-05-06T02:03:05.931Z,9.40
2023-05-06T02:04:05.931Z,9.50
2023-05-06T02:05:05.828Z,8.50
2023-05-06T02:06:05.824Z,7.50
2023-05-06T02:07:05.813Z,7.00
2023-05-06T02:08:05.812Z,8.10
2023-05-06T02:09:05.825Z,9.10
2023-05-06T02:10:05.840Z,10.00
2023-05-06T02:11:05.806Z,11.00
2023-05-06T02:12:05.811Z,13.20
2023-05-06T02:13:05.791Z,13.10
2023-05-06T02:14:05.809Z,21.10
2023-05-06T02:15:05.851Z,15.10
2023-05-06T02:16:05.789Z,16.90
2023-05-06T02:17:05.822Z,15.50
2023-05-06T02:18:05.731Z,14.10
2023-05-06T02:19:05.712Z,22.10
2023-05-06T02:20:05.872Z,27.60
2023-05-06T02:21:05.700Z,25.90
2023-05-06T02:22:05.689Z,16.00
2023-05-06T02:23:05.737Z,18.60
2023-05-06T02:24:05.696Z,20.70
2023-05-06T02:25:05.687Z,21.90
2023-05-06T02:26:05.662Z,19.90
2023-05-06T02:27:05.660Z,19.70
2023-05-06T02:28:05.654Z,17.30
2023-05-06T02:29:05.649Z,21.50
2023-05-06T02:30:05.630Z,22.60
2023-05-06T02:31:05.665Z,24.50
2023-05-06T02:32:05.626Z,22.10
2023-05-06T02:33:05.608Z,19.70
2023-05-06T02:34:05.606Z,18.70
2023-05-06T02:35:05.598Z,17.20
2023-05-06T02:36:05.642Z,24.50
2023-05-06T02:37:05.568Z,21.30
2023-05-06T02:38:05.568Z,20.60
2023-05-06T02:39:05.545Z,24.70
2023-05-06T02:40:05.551Z,24.60
2023-05-06T02:41:05.568Z,21.20
2023-05-06T02:42:05.531Z,21.40
2023-05-06T02:43:05.523Z,19.60
2023-05-06T02:44:05.520Z,17.90
2023-05-06T02:45:05.500Z,19.80
2023-05-06T02:46:05.544Z,20.70
2023-05-06T02:47:05.571Z,18.50
2023-05-06T02:48:05.514Z,22.60
2023-05-06T02:49:05.471Z,40.10
2023-05-06T02:50:05.485Z,28.70
2023-05-06T02:51:05.471Z,24.10
2023-05-06T02:52:05.505Z,24.40
2023-05-06T02:53:05.456Z,23.80
2023-05-06T02:54:05.443Z,23.60
2023-05-06T02:55:05.414Z,28.50
2023-05-06T02:56:05.450Z,36.60
2023-05-06T02:57:05.427Z,29.70
2023-05-06T02:58:05.426Z,31.90
2023-05-06T02:59:05.422Z,31.20
2023-05-06T03:00:05.413Z,32.30
2023-05-06T03:01:05.443Z,30.00
2023-05-06T03:02:05.405Z,33.80
2023-05-06T03:03:05.407Z,42.80
2023-05-06T03:04:05.402Z,28.80
2023-05-06T03:05:05.363Z,45.10
2023-05-06T03:06:05.361Z,39.20
2023-05-06T03:07:05.331Z,26.60
2023-05-06T03:08:05.391Z,22.50
2023-05-06T03:09:05.320Z,38.10
2023-05-06T03:10:05.352Z,22.70
2023-05-06T03:11:06.797Z,25.60
2023-05-06T03:12:05.316Z,30.30
2023-05-06T03:13:05.318Z,33.40
2023-05-06T03:14:05.294Z,41.50
2023-05-06T03:15:05.274Z,29.80
2023-05-06T03:16:05.325Z,34.30
2023-05-06T03:17:05.290Z,37.30
2023-05-06T03:18:05.365Z,32.80
2023-05-06T03:19:05.262Z,43.50
2023-05-06T03:20:05.242Z,35.90
2023-05-06T03:21:05.392Z,38.50
2023-05-06T03:22:05.238Z,41.30
2023-05-06T03:23:05.257Z,26.90
2023-05-06T03:24:05.267Z,38.90
2023-05-06T03:25:05.186Z,39.20
2023-05-06T03:26:05.196Z,37.30
2023-05-06T03:27:05.172Z,28.80
2023-05-06T03:28:05.181Z,22.50
2023-05-06T03:29:05.220Z,19.20
2023-05-06T03:30:05.175Z,30.30
2023-05-06T03:31:05.151Z,26.90
2023-05-06T03:32:05.148Z,26.60
2023-05-06T03:33:05.160Z,18.70
2023-05-06T03:34:05.123Z,23.30
2023-05-06T03:35:05.144Z,23.50
2023-05-06T03:36:05.109Z,24.40
2023-05-06T03:37:05.216Z,26.00
2023-05-06T03:38:05.133Z,18.20
2023-05-06T03:39:05.086Z,21.10
2023-05-06T03:40:05.160Z,22.50
2023-05-06T03:41:05.145Z,19.50
2023-05-06T03:42:06.526Z,21.60
2023-05-06T03:43:05.067Z,26.70
2023-05-06T03:44:05.047Z,32.80
2023-05-06T03:45:05.052Z,25.30
2023-05-06T03:46:05.077Z,32.20
2023-05-06T03:47:05.062Z,22.00
2023-05-06T03:48:05.029Z,32.90
2023-05-06T03:49:05.009Z,29.20
2023-05-06T03:50:05.006Z,32.30
2023-05-06T03:51:04.976Z,35.60
2023-05-06T03:52:04.982Z,35.00
2023-05-06T03:53:05.015Z,33.50
2023-05-06T03:54:04.974Z,32.40
2023-05-06T03:55:04.954Z,36.60
2023-05-06T03:56:05.148Z,31.90
2023-05-06T03:57:04.944Z,29.00
2023-05-06T03:58:04.939Z,26.60
2023-05-06T03:59:04.934Z,36.20
2023-05-06T04:00:04.923Z,25.60
2023-05-06T04:01:04.965Z,23.10
2023-05-06T04:02:04.972Z,23.20
2023-05-06T04:03:05.036Z,23.60
2023-05-06T04:04:04.986Z,34.10
2023-05-06T04:05:04.899Z,34.20
2023-05-06T04:06:04.878Z,27.30
2023-05-06T04:07:04.880Z,24.90
2023-05-06T04:08:04.855Z,24.00
2023-05-06T04:09:04.854Z,23.30
2023-05-06T04:10:04.894Z,31.60
2023-05-06T04:11:04.841Z,30.30
2023-05-06T04:12:04.894Z,30.40
2023-05-06T04:13:04.884Z,36.00
2023-05-06T04:14:04.808Z,32.60
2023-05-06T04:15:04.784Z,29.40
2023-05-06T04:16:04.803Z,24.60
2023-05-06T04:17:04.774Z,30.20
2023-05-06T04:18:04.797Z,32.30
2023-05-06T04:19:06.452Z,28.20
2023-05-06T04:20:04.758Z,29.80
2023-05-06T04:21:04.773Z,29.30
2023-05-06T04:22:04.798Z,23.30
2023-05-06T04:23:04.747Z,26.30
2023-05-06T04:24:04.745Z,25.90
2023-05-06T04:25:04.764Z,22.00
2023-05-06T04:26:04.710Z,21.60
2023-05-06T04:27:04.729Z,23.10
2023-05-06T04:28:04.759Z,26.80
2023-05-06T04:29:04.680Z,21.40
2023-05-06T04:30:04.682Z,22.60
2023-05-06T04:31:04.699Z,20.50
2023-05-06T04:32:04.797Z,22.40
2023-05-06T04:33:04.674Z,25.10
2023-05-06T04:34:04.667Z,29.10
2023-05-06T04:35:04.630Z,28.20
2023-05-06T04:36:04.627Z,28.90
2023-05-06T04:37:04.630Z,31.40
2023-05-06T04:38:04.636Z,30.90
2023-05-06T04:39:04.604Z,29.20
2023-05-06T04:40:04.597Z,28.00
2023-05-06T04:41:04.600Z,29.00
2023-05-06T04:42:04.588Z,21.60
2023-05-06T04:43:04.609Z,22.40
2023-05-06T04:44:04.622Z,30.10
2023-05-06T04:45:04.552Z,28.90
2023-05-06T04:46:05.493Z,28.80
2023-05-06T04:47:04.547Z,33.10
2023-05-06T04:48:04.590Z,22.90
2023-05-06T04:49:04.570Z,17.80
2023-05-06T04:50:04.540Z,15.70
2023-05-06T04:51:04.518Z,14.30
2023-05-06T04:52:04.541Z,13.60
2023-05-06T04:53:04.497Z,12.00
2023-05-06T04:54:04.493Z,11.40
2023-05-06T04:55:04.494Z,10.50
2023-05-06T04:56:04.524Z,10.00
2023-05-06T04:57:04.517Z,9.70
2023-05-06T04:58:04.458Z,9.70
2023-05-06T04:59:04.451Z,10.80
2023-05-06T05:00:04.458Z,10.80
2023-05-06T05:01:04.529Z,10.70
2023-05-06T05:02:04.500Z,11.70
2023-05-06T05:03:04.700Z,12.90
2023-05-06T05:04:04.431Z,13.40
2023-05-06T05:05:04.423Z,12.80
2023-05-06T05:06:04.436Z,11.30
2023-05-06T05:07:04.429Z,13.30
2023-05-06T05:08:04.378Z,13.60
2023-05-06T05:09:04.382Z,14.30
2023-05-06T05:10:04.372Z,11.10
2023-05-06T05:11:04.354Z,11.60
2023-05-06T05:12:04.347Z,14.00
2023-05-06T05:13:04.550Z,13.10
2023-05-06T05:14:04.331Z,11.90
2023-05-06T05:15:04.333Z,13.40
2023-05-06T05:16:04.382Z,13.70
2023-05-06T05:17:04.327Z,15.00
2023-05-06T05:18:04.360Z,20.30
2023-05-06T05:19:04.929Z,17.00
2023-05-06T05:20:04.351Z,16.00
2023-05-06T05:21:05.588Z,14.80
2023-05-06T05:22:04.302Z,15.40
2023-05-06T05:23:04.252Z,13.60
2023-05-06T05:24:04.297Z,13.70
2023-05-06T05:25:05.532Z,14.50
2023-05-06T05:26:04.241Z,13.60
2023-05-06T05:27:04.223Z,12.50
2023-05-06T05:28:04.226Z,12.30
2023-05-06T05:29:04.213Z,12.80
2023-05-06T05:30:06.165Z,13.00
2023-05-06T05:31:04.319Z,13.00
2023-05-06T05:32:05.492Z,12.80
2023-05-06T05:33:04.219Z,11.70
2023-05-06T05:34:04.165Z,11.80
2023-05-06T05:35:04.164Z,10.50
2023-05-06T05:36:04.684Z,13.00
2023-05-06T05:37:04.168Z,12.90
2023-05-06T05:38:04.132Z,13.00
2023-05-06T05:39:04.134Z,12.50
2023-05-06T05:40:06.263Z,11.50
2023-05-06T05:41:04.100Z,11.90
2023-05-06T05:42:04.102Z,13.80
2023-05-06T05:43:04.105Z,14.60
2023-05-06T05:44:04.899Z,16.70
2023-05-06T05:45:04.071Z,16.30
2023-05-06T05:46:04.100Z,13.80
2023-05-06T05:47:04.688Z,17.10
2023-05-06T05:48:04.585Z,18.90
2023-05-06T05:49:04.060Z,17.20
2023-05-06T05:50:04.191Z,15.60
2023-05-06T05:51:05.323Z,15.20
2023-05-06T05:52:04.016Z,15.80
2023-05-06T05:53:03.989Z,15.80
2023-05-06T05:54:04.056Z,20.20
2023-05-06T05:55:04.002Z,20.60
2023-05-06T05:56:04.011Z,19.30
2023-05-06T05:57:03.960Z,16.80
2023-05-06T05:58:03.968Z,17.40
2023-05-06T05:59:03.979Z,16.30
2023-05-06T06:00:03.956Z,15.90
2023-05-06T06:01:03.934Z,15.30
2023-05-06T06:02:03.975Z,14.80
2023-05-06T06:03:04.020Z,16.30
2023-05-06T06:04:04.421Z,15.60
2023-05-06T06:05:04.008Z,16.50
2023-05-06T06:06:04.902Z,15.90
2023-05-06T06:07:03.904Z,15.70
2023-05-06T06:08:04.105Z,17.80
2023-05-06T06:09:03.867Z,20.60
2023-05-06T06:10:03.896Z,19.70
2023-05-06T06:11:05.127Z,17.80
2023-05-06T06:12:03.860Z,24.80
2023-05-06T06:13:03.882Z,26.70
2023-05-06T06:14:03.893Z,21.60
2023-05-06T06:15:03.824Z,31.20
2023-05-06T06:16:03.909Z,40.90
2023-05-06T06:17:04.106Z,35.50
2023-05-06T06:18:03.961Z,32.70
2023-05-06T06:19:04.414Z,29.50
2023-05-06T06:20:03.892Z,27.40
2023-05-06T06:21:04.383Z,29.20
2023-05-06T06:22:03.778Z,28.40
2023-05-06T06:23:03.823Z,26.60
2023-05-06T06:24:03.796Z,25.70
2023-05-06T06:25:03.772Z,24.40
2023-05-06T06:26:03.742Z,19.00
2023-05-06T06:27:03.721Z,17.40
2023-05-06T06:28:03.731Z,17.50
2023-05-06T06:29:03.794Z,18.70
2023-05-06T06:30:05.384Z,15.70
2023-05-06T06:31:03.757Z,11.40
2023-05-06T06:32:03.917Z,9.80
2023-05-06T06:33:03.738Z,9.60
2023-05-06T06:34:03.719Z,9.60
2023-05-06T06:35:03.669Z,9.10
2023-05-06T06:36:03.749Z,9.00
2023-05-06T06:37:03.647Z,8.80
2023-05-06T06:38:03.654Z,8.20
2023-05-06T06:39:03.640Z,7.50
2023-05-06T06:40:03.624Z,6.20
2023-05-06T06:41:03.641Z,6.10
2023-05-06T06:42:03.671Z,7.70
2023-05-06T06:43:03.611Z,7.50
2023-05-06T06:44:03.740Z,7.20
2023-05-06T06:45:03.614Z,6.80
2023-05-06T06:46:03.722Z,6.60
2023-05-06T06:47:03.592Z,6.40
2023-05-06T06:48:12.978Z,5.90
2023-05-06T06:49:03.613Z,5.90
2023-05-06T06:50:03.543Z,5.40
2023-05-06T06:51:03.554Z,5.80
2023-05-06T06:52:03.536Z,5.90
2023-05-06T06:53:05.639Z,4.70
2023-05-06T06:54:03.539Z,4.60
2023-05-06T06:55:03.624Z,4.50
2023-05-06T06:56:03.513Z,4.30
2023-05-06T06:57:03.644Z,4.20
2023-05-06T06:58:03.573Z,4.30
2023-05-06T06:59:03.491Z,4.20
2023-05-06T07:00:03.539Z,3.40
2023-05-06T07:01:03.511Z,3.20
2023-05-06T07:02:03.486Z,3.20
2023-05-06T07:03:03.462Z,4.30
2023-05-06T07:04:04.316Z,4.30
2023-05-06T07:05:03.484Z,4.50
2023-05-06T07:06:03.404Z,6.10
2023-05-06T07:07:03.438Z,6.20
2023-05-06T07:08:03.566Z,5.00
2023-05-06T07:09:03.423Z,4.60
2023-05-06T07:10:03.381Z,4.00
2023-05-06T07:11:03.427Z,4.60
2023-05-06T07:12:03.377Z,4.00
2023-05-06T07:13:03.995Z,5.30
2023-05-06T07:14:03.384Z,4.20
2023-05-06T07:15:03.370Z,4.30
2023-05-06T07:16:03.332Z,4.50
2023-05-06T07:17:03.435Z,5.00
2023-05-06T07:18:03.374Z,4.90
2023-05-06T07:19:03.320Z,5.40
2023-05-06T07:20:03.307Z,5.90
2023-05-06T07:21:03.305Z,5.50
2023-05-06T07:22:03.287Z,5.10
2023-05-06T07:23:03.356Z,4.80
2023-05-06T07:24:03.384Z,5.30
2023-05-06T07:25:03.261Z,5.40
2023-05-06T07:26:03.238Z,6.10
2023-05-06T07:27:03.249Z,5.60
2023-05-06T07:28:03.232Z,5.40
2023-05-06T07:29:03.276Z,5.30
2023-05-06T07:30:03.224Z,4.70
2023-05-06T07:31:03.223Z,5.10
2023-05-06T07:32:03.205Z,4.60
2023-05-06T07:33:03.270Z,4.40
2023-05-06T07:34:03.182Z,4.20
2023-05-06T07:35:03.251Z,4.00
2023-05-06T07:36:03.234Z,4.30
2023-05-06T07:37:03.196Z,4.00
2023-05-06T07:38:03.224Z,3.40
2023-05-06T07:39:03.155Z,3.80
2023-05-06T07:40:03.305Z,3.40
2023-05-06T07:41:03.126Z,3.50
2023-05-06T07:42:03.138Z,3.60
2023-05-06T07:43:03.116Z,3.10
2023-05-06T07:44:03.101Z,3.40
2023-05-06T07:45:03.108Z,3.00
2023-05-06T07:46:03.251Z,2.70
2023-05-06T07:47:03.144Z,3.20
2023-05-06T07:48:03.134Z,3.10
2023-05-06T07:49:03.066Z,3.10
2023-05-06T07:50:03.096Z,2.80
2023-05-06T07:51:03.065Z,2.90
2023-05-06T07:52:03.068Z,2.70
2023-05-06T07:53:03.050Z,2.90
2023-05-06T07:54:03.042Z,3.30
2023-05-06T07:55:03.032Z,3.00
2023-05-06T07:56:03.072Z,3.00
2023-05-06T07:57:03.014Z,3.20
2023-05-06T07:58:03.034Z,3.20
2023-05-06T07:59:03.006Z,3.10
2023-05-06T08:00:02.977Z,3.80
2023-05-06T08:01:03.011Z,3.50
2023-05-06T08:02:02.977Z,3.40
2023-05-06T08:03:03.047Z,3.90
2023-05-06T08:04:03.097Z,4.10
2023-05-06T08:05:02.947Z,3.70
2023-05-06T08:06:02.937Z,3.30
2023-05-06T08:07:02.956Z,3.60
2023-05-06T08:08:02.915Z,3.30
2023-05-06T08:09:02.923Z,3.40
2023-05-06T08:10:02.895Z,3.80
2023-05-06T08:11:02.901Z,3.50
2023-05-06T08:12:02.922Z,3.80
2023-05-06T08:13:02.917Z,3.50
2023-05-06T08:14:02.864Z,3.80
2023-05-06T08:15:03.004Z,3.80
2023-05-06T08:16:02.883Z,3.50
2023-05-06T08:17:02.853Z,3.40
2023-05-06T08:18:10.366Z,3.50
2023-05-06T08:19:03.887Z,3.20
2023-05-06T08:20:02.804Z,3.00
2023-05-06T08:21:02.860Z,2.90
2023-05-06T08:22:02.787Z,3.00
2023-05-06T08:23:02.785Z,3.20
2023-05-06T08:24:02.773Z,3.40
2023-05-06T08:25:02.787Z,3.30
2023-05-06T08:26:02.756Z,3.40
2023-05-06T08:27:02.797Z,4.80
2023-05-06T08:28:02.827Z,3.70
2023-05-06T08:29:02.753Z,4.00
2023-05-06T08:30:02.742Z,3.90
2023-05-06T08:31:02.783Z,3.50
2023-05-06T08:32:02.848Z,3.20
2023-05-06T08:33:02.756Z,3.20
2023-05-06T08:34:02.697Z,3.70
2023-05-06T08:35:02.711Z,3.30
2023-05-06T08:36:02.697Z,3.50
2023-05-06T08:37:02.726Z,3.30
2023-05-06T08:38:02.690Z,3.20
2023-05-06T08:39:02.666Z,3.70
2023-05-06T08:40:02.645Z,3.50
2023-05-06T08:41:02.651Z,3.10
2023-05-06T08:42:02.676Z,3.20
2023-05-06T08:43:02.676Z,2.90
2023-05-06T08:44:02.740Z,3.10
2023-05-06T08:45:02.627Z,3.10
2023-05-06T08:46:02.705Z,3.40
2023-05-06T08:47:02.615Z,2.90
2023-05-06T08:48:02.625Z,2.90
2023-05-06T08:49:02.595Z,3.10
2023-05-06T08:50:02.644Z,3.10
2023-05-06T08:51:02.616Z,3.20
2023-05-06T08:52:02.561Z,3.10
2023-05-06T08:53:02.565Z,3.00
2023-05-06T08:54:02.569Z,2.90
2023-05-06T08:55:02.552Z,3.10
2023-05-06T08:56:02.555Z,2.70
2023-05-06T08:57:02.585Z,3.40
2023-05-06T08:58:02.548Z,3.30
2023-05-06T08:59:02.543Z,3.20
2023-05-06T09:00:02.500Z,3.00
2023-05-06T09:01:02.525Z,2.70
2023-05-06T09:02:02.526Z,2.40
2023-05-06T09:03:02.651Z,2.50
2023-05-06T09:04:02.482Z,2.90
2023-05-06T09:05:02.484Z,2.90
2023-05-06T09:06:02.451Z,2.40
2023-05-06T09:07:02.462Z,2.70
2023-05-06T09:08:02.469Z,2.70
2023-05-06T09:09:02.456Z,2.40
2023-05-06T09:10:02.480Z,2.30
2023-05-06T09:11:02.431Z,2.50
2023-05-06T09:12:02.424Z,2.60
2023-05-06T09:13:02.440Z,2.90
2023-05-06T09:14:02.412Z,2.40
2023-05-06T09:15:02.399Z,2.20
2023-05-06T09:16:02.513Z,2.30
2023-05-06T09:17:02.458Z,2.20
2023-05-06T09:18:02.399Z,2.30
2023-05-06T09:19:02.382Z,2.30
2023-05-06T09:20:02.386Z,2.10
2023-05-06T09:21:02.349Z,2.30
2023-05-06T09:22:02.325Z,2.00
2023-05-06T09:23:02.334Z,2.10
2023-05-06T09:24:02.325Z,2.10
2023-05-06T09:25:02.315Z,2.40
2023-05-06T09:26:02.335Z,2.00
2023-05-06T09:27:02.305Z,1.90
2023-05-06T09:28:02.303Z,2.20
2023-05-06T09:29:02.294Z,2.30
2023-05-06T09:30:02.328Z,2.20
2023-05-06T09:31:02.333Z,2.20
2023-05-06T09:32:02.319Z,2.20
2023-05-06T09:33:02.350Z,2.30
2023-05-06T09:34:02.225Z,2.20
2023-05-06T09:35:02.227Z,2.20
2023-05-06T09:36:02.218Z,2.10
2023-05-06T09:37:02.309Z,2.00
2023-05-06T09:38:02.205Z,2.40
2023-05-06T09:39:02.246Z,2.10
2023-05-06T09:40:02.181Z,2.10
2023-05-06T09:41:02.192Z,2.20
2023-05-06T09:42:02.179Z,2.00
2023-05-06T09:43:02.213Z,2.10
2023-05-06T09:44:02.146Z,2.00
2023-05-06T09:45:02.409Z,1.80
2023-05-06T09:46:02.143Z,2.00
2023-05-06T09:47:02.120Z,1.60
2023-05-06T09:48:02.190Z,1.50
2023-05-06T09:49:02.163Z,1.50
2023-05-06T09:50:02.210Z,1.40
2023-05-06T09:51:02.106Z,1.60
2023-05-06T09:52:02.093Z,1.60
2023-05-06T09:53:02.090Z,1.60
2023-05-06T09:54:02.074Z,1.80
2023-05-06T09:55:02.179Z,1.40
2023-05-06T09:56:02.111Z,1.30
2023-05-06T09:57:02.059Z,0.90
2023-05-06T09:58:02.081Z,0.90
2023-05-06T09:59:02.050Z,1.20
2023-05-06T10:00:02.065Z,1.00
2023-05-06T10:01:02.046Z,1.10
2023-05-06T10:02:02.050Z,1.20
2023-05-06T10:03:02.163Z,1.40
2023-05-06T10:04:02.141Z,1.40
2023-05-06T10:05:02.192Z,1.30
2023-05-06T10:06:02.016Z,1.50
2023-05-06T10:07:02.047Z,1.40
2023-05-06T10:08:02.017Z,1.40
2023-05-06T10:09:01.988Z,1.20
2023-05-06T10:10:01.960Z,1.30
2023-05-06T10:11:01.966Z,1.30
2023-05-06T10:12:01.949Z,1.20
2023-05-06T10:13:01.988Z,1.40
2023-05-06T10:14:01.973Z,1.10
2023-05-06T10:15:02.041Z,1.30
2023-05-06T10:16:01.968Z,1.40
2023-05-06T10:17:01.906Z,1.60
2023-05-06T10:18:01.986Z,1.30
2023-05-06T10:19:01.893Z,1.40
2023-05-06T10:20:01.894Z,1.40
2023-05-06T10:21:01.886Z,1.20
2023-05-06T10:22:03.006Z,1.40
2023-05-06T10:23:01.852Z,1.40
2023-05-06T10:24:01.876Z,1.60
2023-05-06T10:25:01.825Z,1.30
2023-05-06T10:26:01.808Z,1.20
2023-05-06T10:27:01.808Z,1.40
2023-05-06T10:28:02.970Z,1.10
2023-05-06T10:29:01.814Z,1.20
2023-05-06T10:30:01.820Z,1.10
2023-05-06T10:31:01.804Z,1.20
2023-05-06T10:32:02.082Z,1.40
2023-05-06T10:33:01.809Z,1.10
2023-05-06T10:34:01.746Z,1.20
2023-05-06T10:35:01.774Z,1.50
2023-05-06T10:36:01.746Z,1.50
2023-05-06T10:37:01.752Z,1.40
2023-05-06T10:38:01.723Z,1.50
2023-05-06T10:39:01.729Z,1.90
2023-05-06T10:40:01.691Z,1.70
2023-05-06T10:41:01.696Z,1.30
2023-05-06T10:42:01.781Z,1.30
2023-05-06T10:43:01.722Z,1.10
2023-05-06T10:44:01.668Z,1.40
2023-05-06T10:45:01.683Z,1.30
2023-05-06T10:46:01.725Z,1.10
2023-05-06T10:47:01.665Z,1.20
2023-05-06T10:48:01.730Z,1.20
2023-05-06T10:49:01.650Z,1.30
2023-05-06T10:50:01.609Z,1.30
2023-05-06T10:51:01.621Z,1.30
2023-05-06T10:52:01.593Z,1.30
2023-05-06T10:53:01.579Z,1.20
2023-05-06T10:54:01.710Z,1.50
2023-05-06T10:55:01.619Z,1.30
2023-05-06T10:56:01.749Z,1.40
2023-05-06T10:57:01.548Z,1.20
2023-05-06T10:58:01.547Z,1.20
2023-05-06T10:59:01.531Z,1.30
2023-05-06T11:00:01.586Z,1.20
2023-05-06T11:01:01.607Z,1.10
2023-05-06T11:02:01.590Z,1.00
2023-05-06T11:03:04.653Z,1.20
2023-05-06T11:04:02.505Z,1.20
2023-05-06T11:05:01.531Z,1.20
2023-05-06T11:06:01.539Z,1.10
2023-05-06T11:07:01.454Z,1.60
2023-05-06T11:08:01.470Z,1.40
2023-05-06T11:09:01.458Z,1.20
2023-05-06T11:10:01.476Z,1.10
2023-05-06T11:11:01.497Z,1.20
2023-05-06T11:12:01.457Z,1.10
2023-05-06T11:13:01.471Z,1.10
2023-05-06T11:14:01.429Z,1.20
2023-05-06T11:15:01.419Z,1.10
2023-05-06T11:16:01.487Z,1.30
2023-05-06T11:17:01.541Z,1.20
2023-05-06T11:18:01.437Z,1.10
2023-05-06T11:19:01.381Z,1.10
2023-05-06T11:20:01.362Z,1.00
2023-05-06T11:21:01.369Z,1.20
2023-05-06T11:22:01.390Z,1.20
2023-05-06T11:23:01.336Z,1.20
2023-05-06T11:24:01.336Z,1.10
2023-05-06T11:25:01.312Z,1.30
2023-05-06T11:26:01.319Z,1.10
2023-05-06T11:27:01.390Z,1.10
2023-05-06T11:28:01.404Z,1.10
2023-05-06T11:29:01.295Z,1.20
2023-05-06T11:30:01.294Z,1.10
2023-05-06T11:31:01.287Z,1.20
2023-05-06T11:32:01.284Z,1.00
2023-05-06T11:33:03.255Z,0.90
2023-05-06T11:34:01.306Z,0.90
2023-05-06T11:35:01.238Z,1.00
2023-05-06T11:36:01.257Z,1.10
2023-05-06T11:37:01.222Z,1.00
2023-05-06T11:38:01.264Z,1.10
2023-05-06T11:39:03.433Z,1.10
2023-05-06T11:40:01.777Z,1.20
2023-05-06T11:41:01.188Z,1.30
2023-05-06T11:42:01.239Z,1.00
2023-05-06T11:43:01.179Z,1.10
2023-05-06T11:44:01.177Z,1.10
2023-05-06T11:45:01.162Z,0.90
2023-05-06T11:46:01.226Z,1.20
2023-05-06T11:47:01.147Z,1.00
2023-05-06T11:48:01.249Z,1.00
2023-05-06T11:49:01.149Z,1.00
2023-05-06T11:50:01.448Z,1.10
2023-05-06T11:51:01.145Z,1.10
2023-05-06T11:52:01.136Z,1.10
2023-05-06T11:53:01.104Z,1.30
2023-05-06T11:54:01.089Z,1.00
2023-05-06T11:55:01.088Z,1.10
2023-05-06T11:56:01.140Z,1.10
2023-05-06T11:57:01.069Z,1.10
2023-05-06T11:58:01.114Z,1.10
2023-05-06T11:59:01.062Z,1.00
2023-05-06T12:00:01.054Z,1.20
2023-05-06T12:01:01.036Z,1.00
2023-05-06T12:02:01.034Z,1.00
2023-05-06T12:03:01.067Z,1.10
2023-05-06T12:04:01.152Z,1.10
2023-05-06T12:05:01.041Z,1.00
2023-05-06T12:06:01.015Z,1.10
2023-05-06T12:07:00.999Z,1.20
2023-05-06T12:08:00.991Z,1.00
2023-05-06T12:09:00.980Z,1.10
2023-05-06T12:10:00.992Z,0.90
2023-05-06T12:11:00.955Z,1.00
2023-05-06T12:12:00.960Z,1.10
2023-05-06T12:13:00.978Z,1.10
2023-05-06T12:14:00.946Z,1.00
2023-05-06T12:15:00.944Z,1.10
2023-05-06T12:16:00.964Z,1.00
2023-05-06T12:17:00.896Z,1.00
2023-05-06T12:18:00.960Z,0.90
2023-05-06T12:19:00.947Z,1.20
2023-05-06T12:20:00.892Z,1.10
2023-05-06T12:21:00.915Z,1.20
2023-05-06T12:22:00.869Z,1.20
2023-05-06T12:23:00.862Z,1.40
2023-05-06T12:24:00.888Z,1.20
2023-05-06T12:25:00.850Z,1.10
2023-05-06T12:26:00.876Z,1.00
2023-05-06T12:27:00.864Z,1.10
2023-05-06T12:28:00.896Z,0.90
2023-05-06T12:29:00.812Z,0.90
2023-05-06T12:30:00.817Z,1.10
2023-05-06T12:31:00.827Z,1.10
2023-05-06T12:32:00.906Z,1.00
2023-05-06T12:33:01.239Z,1.20
2023-05-06T12:34:01.450Z,1.00
2023-05-06T12:35:00.769Z,1.00
2023-05-06T12:36:00.760Z,1.20
2023-05-06T12:37:00.748Z,1.10
2023-05-06T12:38:00.780Z,1.00
2023-05-06T12:39:00.781Z,1.00
2023-05-06T12:40:00.763Z,0.90
2023-05-06T12:41:00.732Z,1.00
2023-05-06T12:42:00.729Z,1.10
2023-05-06T12:43:00.780Z,0.90
2023-05-06T12:44:00.783Z,1.00
2023-05-06T12:45:00.704Z,1.00
2023-05-06T12:46:00.749Z,0.90
2023-05-06T12:47:00.684Z,1.00
2023-05-06T12:48:00.702Z,1.00
2023-05-06T12:49:00.721Z,1.10
2023-05-06T12:50:01.250Z,1.50
2023-05-06T12:51:00.649Z,1.80
2023-05-06T12:52:00.669Z,1.40
2023-05-06T12:53:00.653Z,1.50
2023-05-06T12:54:00.662Z,1.00
2023-05-06T12:55:00.635Z,1.40
2023-05-06T12:56:01.493Z,1.00
2023-05-06T12:57:00.654Z,1.10
2023-05-06T12:58:00.598Z,1.10
2023-05-06T12:59:00.577Z,1.10
2023-05-06T13:00:00.583Z,1.10
2023-05-06T13:01:00.604Z,1.00
2023-05-06T13:02:00.609Z,1.10
2023-05-06T13:03:00.620Z,1.30
2023-05-06T13:04:00.576Z,1.30
2023-05-06T13:05:00.528Z,1.10
2023-05-06T13:06:00.546Z,1.00
2023-05-06T13:07:00.570Z,1.20
2023-05-06T13:08:00.505Z,1.10
2023-05-06T13:09:00.498Z,1.00